createdAt,value
2023-05-06T00:00:42.801Z,11.15
2023-05-06T00:03:10.297Z,10.30
2023-05-06T00:05:37.839Z,9.75
2023-05-06T00:08:06.046Z,10.27
2023-05-06T00:10:33.512Z,11.02
2023-05-06T00:13:00.947Z,10.27
2023-05-06T00:15:30.112Z,10.65
2023-05-06T00:17:59.014Z,11.82
2023-05-06T00:20:27.276Z,11.23
2023-05-06T00:22:55.108Z,11.35
2023-05-06T00:25:22.638Z,11.65
2023-05-06T00:27:50.007Z,11.57
2023-05-06T00:30:17.601Z,10.43
2023-05-06T00:32:45.023Z,11.00
2023-05-06T00:35:13.559Z,11.02
2023-05-06T00:37:41.119Z,12.00
2023-05-06T00:40:09.839Z,11.68
2023-05-06T00:42:37.410Z,11.65
2023-05-06T00:45:06.224Z,10.52
2023-05-06T00:47:33.879Z,10.27
2023-05-06T00:50:01.736Z,11.10
2023-05-06T00:52:29.205Z,10.73
2023-05-06T00:54:56.977Z,10.40
2023-05-06T00:57:24.777Z,10.25
2023-05-06T00:59:52.174Z,10.05
2023-05-06T01:02:19.590Z,10.30
2023-05-06T01:04:47.340Z,9.52
2023-05-06T01:07:41.697Z,10.23
2023-05-06T01:10:24.492Z,9.00
2023-05-06T01:12:55.306Z,9.88
2023-05-06T01:15:33.537Z,9.95
2023-05-06T01:18:08.124Z,9.70
2023-05-06T01:20:38.378Z,9.95
2023-05-06T01:23:12.759Z,9.88
2023-05-06T01:25:40.636Z,9.90
2023-05-06T01:28:11.411Z,10.63
2023-05-06T01:30:57.994Z,10.40
2023-05-06T01:33:41.853Z,10.15
2023-05-06T01:36:28.640Z,9.63
2023-05-06T01:39:14.973Z,9.88
2023-05-06T01:41:43.997Z,9.93
2023-05-06T01:44:12.281Z,9.90
2023-05-06T01:46:42.956Z,10.15
2023-05-06T01:49:12.689Z,10.02
2023-05-06T01:51:40.181Z,10.65
2023-05-06T01:54:09.338Z,10.95
2023-05-06T01:56:37.020Z,11.60
2023-05-06T01:59:04.672Z,10.98
2023-05-06T02:01:32.436Z,11.35
2023-05-06T02:04:01.500Z,11.55
2023-05-06T02:06:29.602Z,12.30
2023-05-06T02:08:57.421Z,10.85
2023-05-06T02:11:26.312Z,11.75
2023-05-06T02:14:01.998Z,11.73
2023-05-06T02:16:31.600Z,11.48
2023-05-06T02:18:59.447Z,11.88
2023-05-06T02:21:27.874Z,10.70
2023-05-06T02:23:55.695Z,12.13
2023-05-06T02:26:23.573Z,11.60
2023-05-06T02:28:51.209Z,11.10
2023-05-06T02:31:18.925Z,11.57
2023-05-06T02:33:46.701Z,11.93
2023-05-06T02:36:14.358Z,11.35
2023-05-06T02:38:42.035Z,12.32
2023-05-06T02:41:10.593Z,12.85
2023-05-06T02:43:38.291Z,11.50
2023-05-06T02:46:06.108Z,11.43
2023-05-06T02:48:33.887Z,12.80
2023-05-06T02:51:02.095Z,12.75
2023-05-06T02:53:29.784Z,12.77
2023-05-06T02:55:57.019Z,12.45
2023-05-06T02:58:24.587Z,11.80
2023-05-06T03:00:52.220Z,11.80
2023-05-06T03:03:19.648Z,12.48
2023-05-06T03:05:47.443Z,12.38
2023-05-06T03:08:15.163Z,12.38
2023-05-06T03:10:43.088Z,12.10
2023-05-06T03:13:10.834Z,11.88
2023-05-06T03:15:38.762Z,13.02
2023-05-06T03:18:06.464Z,12.13
2023-05-06T03:20:35.089Z,11.82
2023-05-06T03:23:02.883Z,11.85
2023-05-06T03:25:31.041Z,12.10
2023-05-06T03:27:58.827Z,12.25
2023-05-06T03:30:28.165Z,11.85
2023-05-06T03:33:01.631Z,11.98
2023-05-06T03:35:32.365Z,11.77
2023-05-06T03:38:01.848Z,12.18
2023-05-06T03:40:38.041Z,12.10
2023-05-06T03:43:06.432Z,13.45
2023-05-06T03:45:34.601Z,13.35
2023-05-06T03:48:04.547Z,13.38
2023-05-06T03:50:34.530Z,14.18
2023-05-06T03:53:03.471Z,12.77
2023-05-06T03:55:33.486Z,13.85
2023-05-06T03:58:01.908Z,13.88
2023-05-06T04:00:29.658Z,14.35
2023-05-06T04:02:57.419Z,14.13
2023-05-06T04:05:31.702Z,14.98
2023-05-06T04:07:59.679Z,13.82
2023-05-06T04:10:27.520Z,14.43
2023-05-06T04:13:01.242Z,15.85
2023-05-06T04:15:36.587Z,15.25
2023-05-06T04:18:08.423Z,14.35
2023-05-06T04:20:38.903Z,16.10
2023-05-06T04:23:06.984Z,17.02
2023-05-06T04:25:35.846Z,16.33
2023-05-06T04:28:04.111Z,17.42
2023-05-06T04:30:32.567Z,14.93
2023-05-06T04:33:00.363Z,16.13
2023-05-06T04:35:28.338Z,17.00
2023-05-06T04:37:57.967Z,16.77
2023-05-06T04:42:58.352Z,20.10
2023-05-06T04:45:29.774Z,17.15
2023-05-06T04:47:57.937Z,16.77
2023-05-06T04:50:26.372Z,17.15
2023-05-06T04:52:54.861Z,16.13
2023-05-06T04:55:22.576Z,16.05
2023-05-06T04:57:53.399Z,17.13
2023-05-06T05:00:22.229Z,16.55
2023-05-06T05:02:50.149Z,17.88
2023-05-06T05:05:18.940Z,18.23
2023-05-06T05:07:50.031Z,17.25
2023-05-06T05:10:18.363Z,18.15
2023-05-06T05:12:46.909Z,17.55
2023-05-06T05:15:14.839Z,18.67
2023-05-06T05:17:42.809Z,18.08
2023-05-06T05:20:11.089Z,22.17
2023-05-06T05:22:38.888Z,21.77
2023-05-06T05:25:08.266Z,20.63
2023-05-06T05:27:36.558Z,22.95
2023-05-06T05:30:04.414Z,21.67
2023-05-06T05:32:35.751Z,22.38
2023-05-06T05:35:04.597Z,21.88
2023-05-06T05:37:32.813Z,20.83
2023-05-06T05:40:01.017Z,20.27
2023-05-06T05:42:33.573Z,20.45
2023-05-06T05:45:05.276Z,18.73
2023-05-06T05:47:33.459Z,19.33
2023-05-06T05:50:01.420Z,17.70
2023-05-06T05:52:30.409Z,17.95
2023-05-06T05:54:58.375Z,18.02
2023-05-06T05:57:26.110Z,18.50
2023-05-06T05:59:53.831Z,18.02
2023-05-06T06:02:21.744Z,16.88
2023-05-06T06:04:49.666Z,16.27
2023-05-06T06:07:17.376Z,16.98
2023-05-06T06:09:49.089Z,15.65
2023-05-06T06:12:18.157Z,15.13
2023-05-06T06:14:48.186Z,15.02
2023-05-06T06:17:20.163Z,15.15
2023-05-06T06:19:50.684Z,15.45
2023-05-06T06:22:18.495Z,14.88
2023-05-06T06:24:46.940Z,14.43
2023-05-06T06:27:14.685Z,14.35
2023-05-06T06:29:42.419Z,14.27
2023-05-06T06:32:10.188Z,15.77
2023-05-06T06:34:38.012Z,15.27
2023-05-06T06:37:07.407Z,15.90
2023-05-06T06:39:35.860Z,14.88
2023-05-06T06:42:07.114Z,15.77
2023-05-06T06:44:48.097Z,14.98
2023-05-06T06:47:15.871Z,14.30
2023-05-06T06:49:43.555Z,13.73
2023-05-06T06:52:11.238Z,15.05
2023-05-06T06:54:39.181Z,14.93
2023-05-06T06:57:07.531Z,15.15
2023-05-06T06:59:35.306Z,15.20
2023-05-06T07:02:03.258Z,15.05
2023-05-06T07:04:30.988Z,13.95
2023-05-06T07:06:58.740Z,15.20
2023-05-06T07:09:26.367Z,14.88
2023-05-06T07:11:54.058Z,15.50
2023-05-06T07:14:21.986Z,15.60
2023-05-06T07:16:51.467Z,15.55
2023-05-06T07:19:19.352Z,14.63
2023-05-06T07:21:47.071Z,15.10
2023-05-06T07:24:14.835Z,15.52
2023-05-06T07:26:42.612Z,15.75
2023-05-06T07:29:10.392Z,15.57
2023-05-06T07:31:38.100Z,15.75
2023-05-06T07:34:06.131Z,15.18
2023-05-06T07:36:40.334Z,16.00
2023-05-06T07:39:08.367Z,15.60
2023-05-06T07:41:36.125Z,14.82
2023-05-06T07:44:04.099Z,14.30
2023-05-06T07:46:31.910Z,14.70
2023-05-06T07:48:59.636Z,14.95
2023-05-06T07:51:28.140Z,14.15
2023-05-06T07:53:55.932Z,14.98
2023-05-06T07:56:23.572Z,14.35
2023-05-06T07:58:51.315Z,15.38
2023-05-06T08:01:19.030Z,14.77
2023-05-06T08:03:46.852Z,14.57
2023-05-06T08:06:14.589Z,14.77
2023-05-06T08:08:42.332Z,15.93
2023-05-06T08:11:10.045Z,15.07
2023-05-06T08:13:37.733Z,15.13
2023-05-06T08:16:06.834Z,15.05
2023-05-06T08:18:34.558Z,13.48
2023-05-06T08:21:02.315Z,15.50
2023-05-06T08:23:32.341Z,14.82
2023-05-06T08:26:00.090Z,15.40
2023-05-06T08:28:29.255Z,14.52
2023-05-06T08:30:56.907Z,15.32
2023-05-06T08:33:24.610Z,15.50
2023-05-06T08:35:53.429Z,16.08
2023-05-06T08:38:21.200Z,15.02
2023-05-06T08:40:49.373Z,15.48
2023-05-06T08:43:20.549Z,13.30
2023-05-06T08:45:48.477Z,13.13
2023-05-06T08:48:16.733Z,15.30
2023-05-06T08:50:44.473Z,15.60
2023-05-06T08:53:16.859Z,15.98
2023-05-06T08:55:44.966Z,15.18
2023-05-06T08:58:15.794Z,16.45
2023-05-06T09:00:43.965Z,16.40
2023-05-06T09:03:11.816Z,17.20
2023-05-06T09:05:39.635Z,15.40
2023-05-06T09:08:07.359Z,17.10
2023-05-06T09:10:47.915Z,16.88
2023-05-06T09:13:16.661Z,16.58
2023-05-06T09:15:47.214Z,16.90
2023-05-06T09:18:15.408Z,15.85
2023-05-06T09:20:49.496Z,14.77
2023-05-06T09:23:18.074Z,13.77
2023-05-06T09:25:46.493Z,12.55
2023-05-06T09:28:14.564Z,11.35
2023-05-06T09:30:43.080Z,14.18
2023-05-06T09:33:11.469Z,15.52
2023-05-06T09:35:40.330Z,15.95
2023-05-06T09:38:08.257Z,16.17
2023-05-06T09:40:36.687Z,16.85
2023-05-06T09:43:04.861Z,18.05
2023-05-06T09:45:33.000Z,16.50
2023-05-06T09:48:01.587Z,15.00
2023-05-06T09:50:29.387Z,13.90
2023-05-06T09:52:57.596Z,13.32
2023-05-06T09:55:27.199Z,11.98
2023-05-06T09:57:55.581Z,13.13
2023-05-06T10:00:28.231Z,13.55
2023-05-06T10:02:56.427Z,13.93
2023-05-06T10:05:25.649Z,13.32
2023-05-06T10:07:54.004Z,13.75
2023-05-06T10:10:23.500Z,12.80
2023-05-06T10:12:53.423Z,11.70
2023-05-06T10:15:21.240Z,12.07
2023-05-06T10:17:52.531Z,11.50
2023-05-06T10:20:22.038Z,12.90
2023-05-06T10:23:08.656Z,11.77
2023-05-06T10:25:37.377Z,13.38
2023-05-06T10:28:07.627Z,13.57
2023-05-06T10:30:38.537Z,14.85
2023-05-06T10:33:11.261Z,14.43
2023-05-06T10:35:50.917Z,16.13
2023-05-06T10:38:35.256Z,12.32
2023-05-06T10:41:03.218Z,12.55
2023-05-06T10:43:31.198Z,13.65
2023-05-06T10:46:00.569Z,14.60
2023-05-06T10:48:28.729Z,14.18
2023-05-06T10:51:14.780Z,14.85
2023-05-06T10:54:02.414Z,15.32
2023-05-06T10:56:37.289Z,15.95
2023-05-06T10:59:09.260Z,15.88
2023-05-06T11:01:38.217Z,14.48
2023-05-06T11:04:16.451Z,17.98
2023-05-06T11:06:48.831Z,18.20
2023-05-06T11:09:20.628Z,16.25
2023-05-06T11:11:51.990Z,15.48
2023-05-06T11:14:27.163Z,15.33
2023-05-06T11:16:56.903Z,13.98
2023-05-06T11:19:24.625Z,14.68
2023-05-06T11:21:53.316Z,14.70
2023-05-06T11:24:30.913Z,16.23
2023-05-06T11:26:59.922Z,16.08
2023-05-06T11:29:27.764Z,15.90
2023-05-06T11:31:55.290Z,13.88
2023-05-06T11:34:30.641Z,12.70
2023-05-06T11:37:03.947Z,14.30
2023-05-06T11:39:36.723Z,14.82
2023-05-06T11:42:08.556Z,12.38
2023-05-06T11:44:40.128Z,13.88
2023-05-06T11:47:09.344Z,15.25
2023-05-06T11:49:39.006Z,12.52
2023-05-06T11:52:07.728Z,14.18
2023-05-06T11:54:38.327Z,12.63
2023-05-06T11:57:06.309Z,15.68
2023-05-06T11:59:34.385Z,15.70
2023-05-06T12:02:04.113Z,13.63
2023-05-06T12:04:39.823Z,11.82
2023-05-06T12:07:09.162Z,12.00
2023-05-06T12:09:42.403Z,13.23
2023-05-06T12:12:10.887Z,12.60
2023-05-06T12:14:39.554Z,15.32
2023-05-06T12:17:07.256Z,13.45
2023-05-06T12:19:36.089Z,13.57
2023-05-06T12:22:15.897Z,12.38
2023-05-06T12:24:43.512Z,12.02
2023-05-06T12:27:10.921Z,15.20
2023-05-06T12:29:38.423Z,14.07
2023-05-06T12:32:10.835Z,13.48
2023-05-06T12:34:41.625Z,13.77
2023-05-06T12:37:09.080Z,12.00
2023-05-06T12:39:38.321Z,12.98
2023-05-06T12:42:06.660Z,15.60
2023-05-06T12:44:39.038Z,13.30
2023-05-06T12:47:08.307Z,14.48
2023-05-06T12:50:08.114Z,12.45
2023-05-06T12:52:44.581Z,14.50
2023-05-06T12:55:11.945Z,14.68
2023-05-06T12:57:39.277Z,15.00
2023-05-06T13:00:07.524Z,14.85
2023-05-06T13:02:34.963Z,13.52
2023-05-06T13:05:03.033Z,12.55
2023-05-06T13:07:30.401Z,12.65
2023-05-06T13:09:57.835Z,14.63
2023-05-06T13:12:25.255Z,13.85
2023-05-06T13:14:52.644Z,14.98
2023-05-06T13:17:20.219Z,13.20
2023-05-06T13:19:47.717Z,13.05
2023-05-06T13:22:15.221Z,11.68
2023-05-06T13:24:42.872Z,11.10
2023-05-06T13:27:10.538Z,12.80
2023-05-06T13:29:38.276Z,13.27
2023-05-06T13:32:08.418Z,13.75
2023-05-06T13:34:36.618Z,14.50
2023-05-06T13:37:04.080Z,14.63
2023-05-06T13:39:31.572Z,13.02
2023-05-06T13:41:59.025Z,12.45
2023-05-06T13:44:26.947Z,12.88
2023-05-06T13:46:54.450Z,11.65
2023-05-06T13:49:21.964Z,10.70
2023-05-06T13:51:49.869Z,10.65
2023-05-06T13:54:17.324Z,13.15
2023-05-06T13:56:44.786Z,12.43
2023-05-06T13:59:13.990Z,12.30
2023-05-06T14:01:42.362Z,11.80
2023-05-06T14:04:09.821Z,12.70
2023-05-06T14:06:38.241Z,14.27
2023-05-06T14:09:05.735Z,14.77
2023-05-06T14:11:33.211Z,13.02
2023-05-06T14:14:00.636Z,11.52
2023-05-06T14:16:28.157Z,12.68
2023-05-06T14:18:55.655Z,13.15
2023-05-06T14:21:23.319Z,14.98
2023-05-06T14:23:50.771Z,13.35
2023-05-06T14:26:18.204Z,14.48
2023-05-06T14:28:45.709Z,14.95
2023-05-06T14:31:13.186Z,13.52
2023-05-06T14:33:40.673Z,12.13
2023-05-06T14:36:08.283Z,14.90
2023-05-06T14:38:35.917Z,15.13
2023-05-06T14:41:03.300Z,13.40
2023-05-06T14:43:30.766Z,14.32
2023-05-06T14:45:58.225Z,15.88
2023-05-06T14:48:25.642Z,16.58
2023-05-06T14:50:53.073Z,15.38
2023-05-06T14:53:20.504Z,14.65
2023-05-06T14:55:48.914Z,13.13
2023-05-06T14:58:16.424Z,13.55
2023-05-06T15:00:44.760Z,14.13
2023-05-06T15:03:12.180Z,13.35
2023-05-06T15:05:39.771Z,14.43
2023-05-06T15:08:07.343Z,15.60
2023-05-06T15:10:34.728Z,14.30
2023-05-06T15:13:02.265Z,12.75
2023-05-06T15:15:29.760Z,14.82
2023-05-06T15:17:57.228Z,14.60
2023-05-06T15:20:24.616Z,14.88
2023-05-06T15:22:52.041Z,14.10
2023-05-06T15:25:33.561Z,14.45
2023-05-06T15:28:02.084Z,14.65
2023-05-06T15:30:29.542Z,15.07
2023-05-06T15:32:57.106Z,15.25
2023-05-06T15:35:24.460Z,13.90
2023-05-06T15:37:58.656Z,15.18
2023-05-06T15:40:26.809Z,13.35
2023-05-06T15:42:54.293Z,13.82
2023-05-06T15:45:22.247Z,14.02
2023-05-06T15:47:49.798Z,13.48
2023-05-06T15:50:32.078Z,13.88
2023-05-06T15:53:01.507Z,13.68
2023-05-06T15:55:29.533Z,12.23
2023-05-06T15:57:59.833Z,13.15
2023-05-06T16:00:28.110Z,13.93
2023-05-06T16:02:55.589Z,16.60
2023-05-06T16:05:23.064Z,15.88
2023-05-06T16:07:50.716Z,14.48
2023-05-06T16:10:18.136Z,13.45
2023-05-06T16:12:45.972Z,13.85
2023-05-06T16:15:13.379Z,14.77
2023-05-06T16:17:40.859Z,13.95
2023-05-06T16:20:10.494Z,15.15
2023-05-06T16:22:40.013Z,13.95
2023-05-06T16:25:07.858Z,15.00
2023-05-06T16:27:35.571Z,14.93
2023-05-06T16:30:03.120Z,14.15
2023-05-06T16:32:30.529Z,14.80
2023-05-06T16:34:59.354Z,15.35
2023-05-06T16:37:28.272Z,14.50
2023-05-06T16:39:55.984Z,14.07
2023-05-06T16:42:23.367Z,13.95
2023-05-06T16:44:51.661Z,15.48
2023-05-06T16:47:23.543Z,14.82
2023-05-06T16:52:19.132Z,15.63
2023-05-06T16:54:46.500Z,15.52
2023-05-06T16:57:13.951Z,16.27
2023-05-06T16:59:41.308Z,15.57
2023-05-06T17:02:08.777Z,16.10
2023-05-06T17:04:37.629Z,17.42
2023-05-06T17:07:05.641Z,16.48
2023-05-06T17:09:33.044Z,16.88
2023-05-06T17:12:00.889Z,16.70
2023-05-06T17:14:28.286Z,15.38
2023-05-06T17:16:56.282Z,15.32
2023-05-06T17:19:23.760Z,14.20
2023-05-06T17:21:51.145Z,14.90
2023-05-06T17:24:18.500Z,15.05
2023-05-06T17:26:46.097Z,15.27
2023-05-06T17:29:13.722Z,14.13
2023-05-06T17:31:41.113Z,15.65
2023-05-06T17:34:08.509Z,14.10
2023-05-06T17:36:35.883Z,14.38
2023-05-06T17:39:05.046Z,14.80
2023-05-06T17:41:33.469Z,15.10
2023-05-06T17:44:01.074Z,14.00
2023-05-06T17:46:28.552Z,14.38
2023-05-06T17:48:55.961Z,14.50
2023-05-06T17:51:23.412Z,15.73
2023-05-06T17:53:51.129Z,17.45
2023-05-06T17:56:20.181Z,16.98
2023-05-06T17:58:47.979Z,16.67
2023-05-06T18:01:15.587Z,16.60
2023-05-06T18:03:44.009Z,16.60
2023-05-06T18:06:12.549Z,16.17
2023-05-06T18:08:39.964Z,17.23
2023-05-06T18:11:07.374Z,16.40
2023-05-06T18:13:36.611Z,16.85
2023-05-06T18:16:04.792Z,15.98
2023-05-06T18:18:32.308Z,16.75
2023-05-06T18:20:59.742Z,16.27
2023-05-06T18:23:27.133Z,19.00
2023-05-06T18:25:54.491Z,17.05
2023-05-06T18:28:22.004Z,17.33
2023-05-06T18:30:49.418Z,17.73
2023-05-06T18:33:16.916Z,18.80
2023-05-06T18:35:44.298Z,18.63
2023-05-06T18:38:12.955Z,19.77
2023-05-06T18:40:41.131Z,20.42
2023-05-06T18:43:08.696Z,21.17
2023-05-06T18:45:36.203Z,21.73
2023-05-06T18:48:04.341Z,21.75
2023-05-06T18:50:31.811Z,20.10
2023-05-06T18:52:59.189Z,20.80
2023-05-06T18:55:26.713Z,17.30
2023-05-06T18:57:54.163Z,15.95
2023-05-06T19:00:22.496Z,15.95
2023-05-06T19:02:50.100Z,17.35
2023-05-06T19:05:17.889Z,16.77
2023-05-06T19:07:45.486Z,16.38
2023-05-06T19:10:13.873Z,17.75
2023-05-06T19:12:41.710Z,17.50
2023-05-06T19:15:12.139Z,19.38
2023-05-06T19:17:39.890Z,23.15
2023-05-06T19:20:08.225Z,26.98
2023-05-06T19:22:35.869Z,23.38
2023-05-06T19:25:03.353Z,23.08
2023-05-06T19:27:30.709Z,23.90
2023-05-06T19:29:58.165Z,21.60
2023-05-06T19:32:25.592Z,22.10
2023-05-06T19:34:52.988Z,22.38
2023-05-06T19:37:20.401Z,21.30
2023-05-06T19:39:49.591Z,21.63
2023-05-06T19:42:16.998Z,22.00
2023-05-06T19:44:44.392Z,21.33
2023-05-06T19:47:13.266Z,20.92
2023-05-06T19:49:40.726Z,19.02
2023-05-06T19:52:08.125Z,19.17
2023-05-06T19:54:35.619Z,19.15
2023-05-06T19:57:03.132Z,19.98
2023-05-06T19:59:30.572Z,20.65
2023-05-06T20:02:01.673Z,20.80
2023-05-06T20:04:29.171Z,19.75
2023-05-06T20:06:57.887Z,18.70
2023-05-06T20:09:25.293Z,16.65
2023-05-06T20:11:52.744Z,18.75
2023-05-06T20:14:20.163Z,18.80
2023-05-06T20:16:47.669Z,18.95
2023-05-06T20:19:15.090Z,18.88
2023-05-06T20:21:42.462Z,19.08
2023-05-06T20:24:09.837Z,19.95
2023-05-06T20:26:37.243Z,20.25
2023-05-06T20:29:04.651Z,19.35
2023-05-06T20:31:32.101Z,19.38
2023-05-06T20:33:59.558Z,20.05
2023-05-06T20:36:27.266Z,19.83
2023-05-06T20:38:54.685Z,20.63
2023-05-06T20:41:22.208Z,20.58
2023-05-06T20:43:52.896Z,20.20
2023-05-06T20:46:20.726Z,19.58
2023-05-06T20:48:48.334Z,18.88
2023-05-06T20:51:16.073Z,18.60
2023-05-06T20:53:43.616Z,19.23
2023-05-06T20:56:20.277Z,18.02
2023-05-06T20:58:48.006Z,17.90
2023-05-06T21:01:16.449Z,16.02
2023-05-06T21:03:46.355Z,16.55
2023-05-06T21:06:17.582Z,14.70
2023-05-06T21:08:46.380Z,14.27
2023-05-06T21:11:14.296Z,15.02
2023-05-06T21:13:41.894Z,14.73
2023-05-06T21:16:09.413Z,15.25
2023-05-06T21:18:37.015Z,13.38
2023-05-06T21:21:04.451Z,12.30
2023-05-06T21:23:32.534Z,12.82
2023-05-06T21:26:00.476Z,12.95
2023-05-06T21:28:27.891Z,13.00
2023-05-06T21:30:55.513Z,11.98
2023-05-06T21:33:22.969Z,12.35
2023-05-06T21:35:50.394Z,11.85
2023-05-06T21:38:17.788Z,18.77
2023-05-06T21:40:45.220Z,12.82
2023-05-06T21:43:12.811Z,12.80
2023-05-06T21:45:40.293Z,11.93
2023-05-06T21:48:07.824Z,11.30
2023-05-06T21:50:37.097Z,11.18
2023-05-06T21:53:04.659Z,10.75
2023-05-06T21:55:32.042Z,11.52
2023-05-06T21:57:59.502Z,11.57
2023-05-06T22:00:28.151Z,11.57
2023-05-06T22:02:55.945Z,12.07
2023-05-06T22:05:23.486Z,12.40
2023-05-06T22:07:51.018Z,11.32
2023-05-06T22:10:18.441Z,11.90
2023-05-06T22:12:45.865Z,11.88
2023-05-06T22:15:14.788Z,11.98
2023-05-06T22:17:42.414Z,11.35
2023-05-06T22:20:13.489Z,11.15
2023-05-06T22:22:40.899Z,11.52
2023-05-06T22:25:09.003Z,10.55
2023-05-06T22:27:36.777Z,10.95
2023-05-06T22:30:04.512Z,10.13
2023-05-06T22:32:32.513Z,10.25
2023-05-06T22:35:00.535Z,9.77
2023-05-06T22:37:28.090Z,10.27
2023-05-06T22:39:58.265Z,11.32
2023-05-06T22:42:25.734Z,11.27
2023-05-06T22:44:53.341Z,12.43
2023-05-06T22:47:20.875Z,12.50
2023-05-06T22:49:48.351Z,12.55
2023-05-06T22:52:16.783Z,13.98
2023-05-06T22:54:44.481Z,15.95
2023-05-06T22:57:12.033Z,15.63
2023-05-06T22:59:39.544Z,16.77
2023-05-06T23:02:06.926Z,17.63
2023-05-06T23:04:34.420Z,16.80
2023-05-06T23:07:02.173Z,17.02
2023-05-06T23:09:29.688Z,16.58
2023-05-06T23:11:57.037Z,16.85
2023-05-06T23:14:24.501Z,16.85
2023-05-06T23:16:51.927Z,15.85
2023-05-06T23:19:21.449Z,15.40
2023-05-06T23:21:48.953Z,16.48
2023-05-06T23:24:16.374Z,17.65
2023-05-06T23:26:43.746Z,17.63
2023-05-06T23:29:11.136Z,17.17
2023-05-06T23:31:38.519Z,15.07
2023-05-06T23:34:05.918Z,15.52
2023-05-06T23:36:34.100Z,16.67
2023-05-06T23:39:01.473Z,15.27
2023-05-06T23:41:28.818Z,13.90
2023-05-06T23:43:56.176Z,15.18
2023-05-06T23:46:23.678Z,15.25
2023-05-06T23:48:51.082Z,16.73
2023-05-06T23:51:18.449Z,16.15
2023-05-06T23:53:46.000Z,15.73
2023-05-06T23:56:13.424Z,17.00
2023-05-06T23:58:40.834Z,15.02
